Lulu Pass Weather Station

This weather station provides temperature, relative humidity (RH), wind speed, gust or max wind speed, and wind direction at 10014ft near Lulu Pass at the head of Fisher Creek. This data can be used with temperature and precipitation data from the Fisher Creek SNOTEL site.

This weather station was purchased by the Friends of the Avalanche Center.

If the data has not been updated recently you can view it directly on datagarrison.com

Elevation
10014ft
Jump to table bottom
Date Time Temperature
deg F
RH, % Wind Speed Wind Gust Wind Direction
11/14/18 05:00 33.8 46 22 31 SW - 244
11/14/18 04:00 33.1 49 21 29 SW - 243
11/14/18 03:00 33.0 50 22 33 SW - 244
11/14/18 02:00 33.9 50 22 32 SW - 247
11/14/18 01:00 31.7 57 21 29 W - 253
11/14/18 00:00 33.0 54 23 30 W - 251
11/13/18 23:00 32.2 59 23 31 W - 251
11/13/18 22:00 33.1 56 26 35 W - 256
11/13/18 21:00 33.2 57 24 30 W - 250
11/13/18 20:00 33.1 57 24 28 SW - 247
11/13/18 19:00 33.2 56 25 29 W - 251
11/13/18 18:00 33.4 54 26 30 W - 253
11/13/18 17:00 33.4 55 25 29 W - 253
11/13/18 16:00 32.6 57 23 28 W - 254
11/13/18 15:00 31.4 59 24 28 W - 256
11/13/18 14:00 30.5 63 26 31 W - 254
11/13/18 13:00 29.8 63 26 32 W - 254
11/13/18 12:00 28.2 66 27 33 W - 253
11/13/18 11:00 27.0 65 30 34 W - 250
11/13/18 10:00 25.8 64 31 35 W - 251
11/13/18 09:00 24.2 68 31 34 W - 253
11/13/18 08:00 23.9 67 32 35 W - 251
11/13/18 07:00 22.7 65 31 35 W - 251
11/13/18 06:00 21.8 63 31 34 W - 254
11/13/18 05:00 21.2 62 31 35 W - 253
11/13/18 04:00 20.6 60 31 35 W - 254
11/13/18 03:00 21.0 56 30 34 W - 253
11/13/18 02:00 20.3 55 30 33 W - 256
11/13/18 01:00 20.6 52 31 34 W - 254
11/13/18 00:00 19.5 52 30 33 W - 253
11/12/18 23:00 19.3 51 30 34 W - 254
11/12/18 22:00 18.0 54 30 33 W - 254
11/12/18 21:00 17.9 53 31 35 W - 256
11/12/18 20:00 17.3 51 32 35 W - 253
11/12/18 19:00 16.0 51 31 34 W - 254
11/12/18 18:00 16.2 46 31 34 W - 253
11/12/18 17:00 14.6 54 29 32 W - 257
11/12/18 16:00 13.1 54 30 33 W - 257
11/12/18 15:00 11.9 57 30 32 W - 256
11/12/18 14:00 12.1 54 31 36 W - 257
11/12/18 13:00 11.5 56 21 30 W - 261